Flight Track Log - Related Links

Times and Time Zones

All times are in EDT time to prevent confusion due to time zone crossing. See the RAX81 flight status page for this flight to view local times or setup timezone preferences in your user account.

Time Position Orientation Groundspeed Altitude Reporting Facility
EDT Latitude Longitude Course Direction KTS MPH feet Rate Location/Type
Mon 05:58:17 AM 40.9572 -74.0478 352° North 169 194 3,900  Level Boston Center
Mon 05:59:17 AM 40.9989 -74.0406 North 151 174 5,600 1,700 Climbing Boston Center
Mon 06:00:17 AM 41.0331 -73.9892 49° Northeast 157 181 7,300 1,500 Climbing Boston Center
Mon 06:01:17 AM 41.0608 -73.9431 51° Northeast 171 197 8,600 1,400 Climbing Boston Center
Mon 06:02:17 AM 41.0906 -73.8886 54° Northeast 176 203 10,100 1,339 Climbing Boston Center
Mon 06:03:18 AM 41.1142 -73.8425 56° Northeast 171 197 11,300 1,200 Climbing Boston Center
Mon 06:04:17 AM 41.1419 -73.7825 58° Northeast 171 197 12,500 1,109 Climbing Boston Center
Mon 06:05:17 AM 41.1550 -73.7275 72° East 166 191 13,500 1,100 Climbing Boston Center
Mon 06:06:17 AM 41.1706 -73.6589 73° East 166 191 14,700 800 Climbing Boston Center
Mon 06:07:17 AM 41.1836 -73.6011 73° East 174 200 15,100 150 Climbing Boston Center
Mon 06:08:17 AM 41.2031 -73.5161 73° East 200 230 15,000 -50 Descending Boston Center
Mon 06:09:17 AM 41.2206 -73.4417 73° East 226 260 15,000  Level Boston Center
Mon 06:10:17 AM 41.2422 -73.3483 73° East 233 268 15,000  Level Boston Center
Mon 06:11:17 AM 41.2636 -73.2686 70° East 233 268 15,000  Level Boston Center
Mon 06:12:17 AM 41.2850 -73.1803 72° East 233 268 15,000 -50 Level Boston Center
Mon 06:13:17 AM 41.3064 -73.1006 70° East 233 268 14,900 -50 Descending Boston Center
Mon 06:14:17 AM 41.3278 -73.0067 73° East 239 275 14,900  Level Boston Center
Mon 06:15:17 AM 41.3489 -72.9211 72° East 239 275 14,900  Level Boston Center
Mon 06:16:17 AM 41.3703 -72.8356 72° East 239 275 14,900  Level Boston Center
Mon 06:17:17 AM 41.3914 -72.7472 72° East 239 275 14,900  Level Boston Center
Mon 06:18:17 AM 41.4081 -72.6781 72° East 239 275 14,900  Level Boston Center
Mon 06:19:17 AM 41.4311 -72.5758 73° East 239 275 14,900  Level Boston Center
Mon 06:20:17 AM 41.4522 -72.4872 72° East 239 275 14,900  Level Boston Center
Mon 06:21:17 AM 41.4731 -72.4014 72° East 239 275 14,900  Level Boston Center
Mon 06:22:17 AM 41.4939 -72.3153 72° East 239 275 14,900  Level Boston Center
Mon 06:23:17 AM 41.5186 -72.2267 70° East 253 291 14,900  Level Boston Center
Mon 06:24:17 AM 41.5350 -72.1378 76° East 247 284 14,900  Level Boston Center
Mon 06:25:17 AM 41.5514 -72.0489 76° East 242 278 14,900 -107 Level Boston Center
Mon 06:26:09 AM 41.5678 -71.9739 74° East 249 287 14,700 -512 Descending Boston Center
Mon 06:26:39 AM 41.5906 -71.9433 45° Northeast 254 292 14,200 -1,235 Descending Boston Center
Mon 06:27:17 AM 41.6281 -71.8986 42° Northeast 242 278 13,300 -1,475 Descending Boston Center
Mon 06:27:40 AM 41.6489 -71.8817 31° Northeast 266 306 12,700 -1,400 Descending Boston Center
Mon 06:28:17 AM 41.6903 -71.8342 41° Northeast 269 310 11,900 -1,100 Descending Boston Center
Mon 06:28:40 AM 41.7150 -71.8117 34° Northeast 277 319 11,600 -800 Descending Boston Center
Mon 06:29:17 AM 41.7461 -71.7639 49° Northeast 269 310 11,100 -787 Descending Boston Center
Mon 06:29:41 AM 41.7647 -71.7386 45° Northeast 270 311 10,800 -700 Descending Boston Center
Mon 06:30:17 AM 41.7978 -71.6939 45° Northeast 264 304 10,400 -590 Descending Boston Center
Mon 06:30:42 AM 41.8206 -71.6714 36° Northeast 264 304 10,200 -583 Descending Boston Center
Mon 06:31:29 AM 41.8514 -71.6319 44° Northeast 259 298 9,700 -1,009 Descending Boston Center
Mon 06:32:29 AM 41.9133 -71.5558 42° Northeast 266 306 8,400 -733 Descending Boston Center
Mon 06:35:10 AM 42.0667 -71.3667 42° Northeast 252 290 7,000 -537 Descending KA90
Mon 06:35:50 AM 42.1000 -71.3333 37° Northeast 251 289 6,600 -882 Descending KA90
Mon 06:36:52 AM 42.1500 -71.2667 45° Northeast 264 304 5,500 -780 Descending KA90
Mon 06:37:53 AM 42.2000 -71.1833 51° Northeast 264 304 5,000 -240 Descending KA90
Mon 06:38:57 AM 42.2667 -71.1333 29° Northeast 230 265 5,000  Level KA90
Mon 06:39:57 AM 42.3167 -71.1000 26° Northeast 223 257 5,000  Level KA90
Mon 06:41:04 AM 42.3833 -71.1000 360° North 221 254 5,000  Level KA90
Mon 06:42:04 AM 42.4500 -71.0833 10° North 227 261 5,000 -545 Level KA90
Mon 06:43:05 AM 42.5167 -71.0500 20° North 248 285 3,900 -1,068 Descending KA90
Mon 06:44:02 AM 42.5667 -71.0000 36° Northeast 258 297 2,900 -458 Descending KA90
Mon 06:45:03 AM 42.5500 -70.9167 105° East 213 245 3,000 -261 Climbing KA90
Mon 06:45:57 AM 42.5167 -70.9000 160° South 171 197 2,400 -500 Descending KA90
Mon 06:47:03 AM 42.4833 -70.9500 228° Southwest 163 188 2,000 -331 Descending KA90
Mon 06:48:04 AM 42.4500 -70.9667 200° South 165 190 1,700 -639 Descending KA90
Mon 06:49:05 AM 42.4000 -70.9833 194° South 138 159 700 -984 Descending KA90
Mon 06:51:00 AM 42.3630 -71.0064 180° South  Level Estimated
Mon 06:58:00 AM 42.3630 -71.0064 180° South  Level Estimated

Login

Don't have an account? Register now (free) for customized features, flight alerts, and more!